Time;durP1;ratioP1;P1;durP2;ratioP2;P2;SDS_P1;SDS_P2;PMS_P1;PMS_P2;Temp;Humidity;BMP_temperature;BMP_pressure;BME280_temperature;BME280_humidity;BME280_pressure;Samples;Min_cycle;Max_cycle;Signal;HPM_P1;HPM_P2
2023/05/15 00:01:24;;;;;;;8.88;1.45;;;9.90;99.90;;;;;;4824745;29;20058;-59
2023/05/15 00:03:53;;;;;;;6.27;1.60;;;9.90;99.90;;;;;;4826850;29;20070;-60
2023/05/15 00:06:22;;;;;;;6.75;1.75;;;9.80;99.90;;;;;;4836761;29;20049;-58
2023/05/15 00:08:50;;;;;;;7.50;1.65;;;9.80;99.90;;;;;;4831333;29;20058;-59
2023/05/15 00:11:18;;;;;;;14.68;3.45;;;9.80;99.90;;;;;;4819670;29;20411;-59
2023/05/15 00:13:46;;;;;;;9.70;1.98;;;9.70;99.90;;;;;;4829606;29;20069;-58
2023/05/15 00:16:15;;;;;;;10.52;1.75;;;9.70;99.90;;;;;;4835520;29;20049;-59
2023/05/15 00:18:47;;;;;;;15.98;2.67;;;9.70;99.90;;;;;;4837396;29;20069;-57
2023/05/15 00:21:16;;;;;;;10.23;1.40;;;9.70;99.90;;;;;;4837640;29;20061;-58
2023/05/15 00:23:43;;;;;;;5.85;1.10;;;9.70;99.90;;;;;;4836899;29;20053;-59
2023/05/15 00:26:14;;;;;;;9.65;1.65;;;9.70;99.90;;;;;;4836871;29;20069;-58
2023/05/15 00:28:43;;;;;;;9.52;1.52;;;9.80;99.90;;;;;;4836904;29;20054;-58
2023/05/15 00:31:11;;;;;;;16.95;1.75;;;9.80;99.90;;;;;;4826576;29;20046;-59
2023/05/15 00:33:40;;;;;;;6.15;1.42;;;9.80;99.90;;;;;;4836867;29;20050;-59
2023/05/15 00:36:09;;;;;;;14.27;2.03;;;9.80;99.90;;;;;;4836665;29;20042;-58
2023/05/15 00:38:37;;;;;;;12.18;2.67;;;9.80;99.90;;;;;;4836413;29;20080;-58
2023/05/15 00:41:06;;;;;;;12.02;1.60;;;9.90;99.90;;;;;;4836434;29;20072;-58
2023/05/15 00:43:39;;;;;;;8.27;1.55;;;9.90;99.90;;;;;;4834931;29;20070;-57
2023/05/15 00:46:09;;;;;;;11.70;2.20;;;9.90;99.90;;;;;;4820642;29;20065;-58
2023/05/15 00:48:38;;;;;;;8.13;1.70;;;9.90;99.90;;;;;;4832929;29;20043;-58
2023/05/15 00:51:06;;;;;;;7.03;1.52;;;9.90;99.90;;;;;;4818388;29;20392;-58
2023/05/15 00:53:34;;;;;;;10.05;1.23;;;9.90;99.90;;;;;;4827762;29;20054;-58
2023/05/15 00:56:04;;;;;;;13.30;1.80;;;9.90;99.90;;;;;;4829710;29;20058;-59
2023/05/15 00:58:33;;;;;;;17.95;2.47;;;10.60;99.90;;;;;;4832549;29;20453;-58
2023/05/15 01:01:01;;;;;;;7.85;1.33;;;9.80;99.90;;;;;;4835424;29;20049;-59
2023/05/15 01:03:30;;;;;;;14.95;2.50;;;9.70;99.90;;;;;;4831880;29;20051;-59
2023/05/15 01:06:00;;;;;;;12.77;1.60;;;9.70;99.90;;;;;;4832595;29;20052;-58
2023/05/15 01:08:33;;;;;;;7.65;1.20;;;9.60;99.90;;;;;;4832195;29;20039;-58
2023/05/15 01:11:04;;;;;;;15.10;2.42;;;9.50;99.90;;;;;;4820791;29;20046;-59
2023/05/15 01:13:32;;;;;;;6.65;1.25;;;9.50;99.90;;;;;;4837095;29;20406;-59
2023/05/15 01:16:00;;;;;;;11.90;1.50;;;9.40;99.90;;;;;;4823224;29;20057;-59
2023/05/15 01:18:32;;;;;;;9.13;1.70;;;9.40;99.90;;;;;;4823419;29;20045;-59
2023/05/15 01:21:18;;;;;;;13.50;1.95;;;9.30;99.90;;;;;;4836624;29;20053;-59
2023/05/15 01:24:31;;;;;;;14.05;2.85;;;9.30;99.90;;;;;;4836800;29;20073;-57
2023/05/15 01:27:19;;;;;;;7.95;1.60;;;9.20;99.90;;;;;;4831101;29;20049;-58
2023/05/15 01:30:00;;;;;;;6.40;1.88;;;9.20;99.90;;;;;;4831173;29;20050;-59
2023/05/15 01:32:37;;;;;;;7.47;1.30;;;8.90;99.90;;;;;;4835161;29;20052;-58
2023/05/15 01:35:29;;;;;;;11.18;1.80;;;9.00;99.90;;;;;;4839799;29;20050;-59
2023/05/15 01:38:09;;;;;;;14.02;2.88;;;9.00;99.90;;;;;;4831872;29;20051;-60
2023/05/15 01:40:37;;;;;;;9.05;1.70;;;8.90;99.90;;;;;;4839983;29;20105;-59
2023/05/15 01:43:14;;;;;;;7.35;1.40;;;8.90;99.90;;;;;;4840087;29;20390;-60
2023/05/15 01:45:42;;;;;;;11.07;1.77;;;8.80;99.90;;;;;;4840836;29;20068;-58
2023/05/15 01:48:12;;;;;;;8.52;1.35;;;8.80;99.90;;;;;;4843155;29;20057;-58
2023/05/15 01:50:44;;;;;;;14.60;1.40;;;8.80;99.90;;;;;;4843321;29;20049;-59
2023/05/15 01:53:15;;;;;;;6.78;1.48;;;8.80;99.90;;;;;;4816416;29;20054;-59
2023/05/15 01:55:44;;;;;;;19.70;1.27;;;8.70;99.90;;;;;;4841234;29;20049;-59
2023/05/15 01:58:13;;;;;;;9.65;1.90;;;8.70;99.90;;;;;;4841591;29;20060;-58
2023/05/15 02:00:41;;;;;;;9.68;1.30;;;8.60;99.90;;;;;;4843158;29;20054;-58
2023/05/15 02:03:10;;;;;;;14.07;2.05;;;8.70;99.90;;;;;;4843310;29;20524;-58
2023/05/15 02:05:41;;;;;;;15.05;1.38;;;8.60;99.90;;;;;;4841547;29;20495;-59
2023/05/15 02:08:11;;;;;;;10.68;1.40;;;8.60;99.90;;;;;;4843107;29;20050;-58
2023/05/15 02:10:40;;;;;;;12.80;2.20;;;8.60;99.90;;;;;;4841164;29;20061;-58
2023/05/15 02:13:08;;;;;;;10.93;2.43;;;8.50;99.90;;;;;;4842949;29;20398;-59
2023/05/15 02:15:37;;;;;;;8.48;1.98;;;8.50;99.90;;;;;;4842068;29;20061;-59
2023/05/15 02:18:05;;;;;;;7.95;1.60;;;8.50;99.90;;;;;;4841912;29;20046;-58
2023/05/15 02:20:33;;;;;;;8.43;1.30;;;8.50;99.90;;;;;;4826339;29;20064;-59
2023/05/15 02:23:01;;;;;;;11.25;1.70;;;8.40;99.90;;;;;;4842306;29;20050;-59
2023/05/15 02:25:40;;;;;;;7.32;1.70;;;8.40;99.90;;;;;;4842679;29;20046;-59
2023/05/15 02:28:23;;;;;;;6.63;1.15;;;8.40;99.90;;;;;;4825205;29;20517;-59
2023/05/15 02:31:07;;;;;;;6.22;1.33;;;8.30;99.90;;;;;;4842245;29;20057;-59
2023/05/15 02:34:19;;;;;;;11.30;2.13;;;8.30;99.90;;;;;;4841914;29;20042;-58
2023/05/15 02:36:49;;;;;;;15.07;1.77;;;8.30;99.90;;;;;;4775300;29;20066;-58
2023/05/15 02:39:22;;;;;;;12.30;1.92;;;8.30;99.90;;;;;;4788595;29;20062;-58
2023/05/15 02:41:51;;;;;;;3.92;0.90;;;8.20;99.90;;;;;;4823508;29;20531;-58
2023/05/15 02:44:21;;;;;;;8.55;1.27;;;8.20;99.90;;;;;;4842408;29;20046;-57
2023/05/15 02:46:50;;;;;;;8.43;1.58;;;8.20;99.90;;;;;;4842465;29;20065;-60
2023/05/15 02:49:21;;;;;;;7.85;1.30;;;8.20;99.90;;;;;;4840873;29;20054;-59
2023/05/15 02:51:50;;;;;;;6.50;1.13;;;8.20;99.90;;;;;;4842295;29;20054;-58
2023/05/15 02:54:21;;;;;;;11.48;1.35;;;8.10;99.90;;;;;;4841162;29;20041;-57
2023/05/15 02:56:48;;;;;;;7.38;1.45;;;8.00;99.90;;;;;;4841671;29;20061;-58
2023/05/15 02:59:18;;;;;;;8.15;1.70;;;8.10;99.90;;;;;;4841130;29;20046;-57
2023/05/15 03:01:46;;;;;;;;;;;8.10;99.90;;;;;;4841526;29;20056;-57
2023/05/15 03:04:17;;;;;;;5.60;1.42;;;8.00;99.90;;;;;;4841976;29;19933;-57
2023/05/15 03:06:45;;;;;;;13.20;1.80;;;8.00;99.90;;;;;;4841072;29;20518;-57
2023/05/15 03:09:13;;;;;;;14.60;2.78;;;8.00;99.90;;;;;;4825612;29;20050;-58
2023/05/15 03:11:41;;;;;;;8.98;1.10;;;8.00;99.90;;;;;;4840637;29;20057;-58
2023/05/15 03:14:09;;;;;;;9.65;1.52;;;8.00;99.90;;;;;;4841928;29;20065;-58
2023/05/15 03:16:37;;;;;;;5.47;1.20;;;;;;;;;;4840875;29;20053;-58
2023/05/15 03:19:05;;;;;;;8.73;2.05;;;7.90;99.90;;;;;;4840438;29;20049;-57
2023/05/15 03:21:36;;;;;;;10.43;1.17;;;7.90;99.90;;;;;;4841074;29;20050;-57
2023/05/15 03:24:04;;;;;;;9.25;1.30;;;7.90;99.90;;;;;;4841155;29;20061;-57
2023/05/15 03:26:32;;;;;;;11.63;2.80;;;7.90;99.90;;;;;;4823415;29;20049;-57
2023/05/15 03:29:01;;;;;;;11.95;2.22;;;7.90;99.90;;;;;;4825386;29;20394;-57
2023/05/15 03:31:29;;;;;;;9.27;1.00;;;7.80;99.90;;;;;;4840257;29;20057;-57
2023/05/15 03:33:56;;;;;;;12.02;1.63;;;7.80;99.90;;;;;;4855664;29;20057;-57
2023/05/15 03:36:24;;;;;;;12.30;3.28;;;7.80;99.90;;;;;;4836841;29;20050;-58
2023/05/15 03:38:52;;;;;;;6.03;1.60;;;7.80;99.90;;;;;;4822215;29;20054;-59
2023/05/15 03:41:20;;;;;;;8.65;2.30;;;7.70;99.90;;;;;;4835115;29;20049;-58
2023/05/15 03:43:48;;;;;;;10.90;1.35;;;7.70;99.90;;;;;;4841661;29;20060;-56
2023/05/15 03:46:18;;;;;;;11.07;1.67;;;7.60;99.90;;;;;;4841344;29;20533;-58
2023/05/15 03:48:47;;;;;;;10.95;1.52;;;7.60;99.90;;;;;;4841400;29;20053;-59
2023/05/15 03:51:17;;;;;;;7.00;1.10;;;7.60;99.90;;;;;;4840676;29;20046;-59
2023/05/15 03:53:45;;;;;;;11.45;1.45;;;7.60;99.90;;;;;;4841215;29;20060;-58
2023/05/15 03:56:13;;;;;;;12.90;1.40;;;7.50;99.90;;;;;;4850573;29;20054;-58
2023/05/15 03:58:41;;;;;;;12.48;1.40;;;7.50;99.90;;;;;;4823140;29;20057;-58
2023/05/15 04:01:09;;;;;;;8.05;1.63;;;7.50;99.90;;;;;;4832870;29;20042;-58
2023/05/15 04:03:37;;;;;;;10.35;1.67;;;7.40;99.90;;;;;;4841363;29;20534;-59
2023/05/15 04:06:05;;;;;;;6.72;1.77;;;7.40;99.90;;;;;;4840530;29;20050;-59
2023/05/15 04:08:33;;;;;;;9.27;1.35;;;7.40;99.90;;;;;;4840433;29;20049;-59
2023/05/15 04:11:00;;;;;;;8.10;1.23;;;7.40;99.90;;;;;;4840445;29;20053;-58
2023/05/15 04:13:28;;;;;;;13.50;2.40;;;7.40;99.90;;;;;;4840994;29;20050;-58
2023/05/15 04:15:57;;;;;;;5.35;1.30;;;7.40;99.90;;;;;;4840901;29;20054;-58
2023/05/15 04:18:25;;;;;;;12.00;1.63;;;7.40;99.90;;;;;;4841057;29;20486;-58
2023/05/15 04:20:53;;;;;;;12.23;2.03;;;7.40;99.90;;;;;;4832104;29;20426;-58
2023/05/15 04:23:21;;;;;;;7.60;1.20;;;7.30;99.90;;;;;;4831197;29;20050;-60
2023/05/15 04:25:49;;;;;;;12.73;1.55;;;7.30;99.90;;;;;;4840465;29;20050;-59
2023/05/15 04:28:18;;;;;;;5.20;0.93;;;7.30;99.90;;;;;;4840922;29;20050;-59
2023/05/15 04:30:46;;;;;;;7.25;2.35;;;7.30;99.90;;;;;;4839210;29;20053;-58
2023/05/15 04:33:14;;;;;;;6.43;1.55;;;7.30;99.90;;;;;;4840479;29;20050;-60
2023/05/15 04:35:42;;;;;;;11.18;1.73;;;7.30;99.90;;;;;;4840236;29;20547;-59
2023/05/15 04:38:10;;;;;;;9.30;2.03;;;7.30;99.90;;;;;;4840358;29;20053;-58
2023/05/15 04:40:37;;;;;;;11.77;1.83;;;7.30;99.90;;;;;;4839922;29;20053;-59
2023/05/15 04:43:05;;;;;;;15.13;1.75;;;7.30;99.90;;;;;;4840773;29;20046;-59
2023/05/15 04:45:33;;;;;;;13.40;2.88;;;7.30;99.90;;;;;;4840824;29;20074;-59
2023/05/15 04:48:01;;;;;;;13.35;1.38;;;7.30;99.90;;;;;;4832114;29;20060;-59
2023/05/15 04:50:29;;;;;;;14.98;2.20;;;7.40;99.90;;;;;;4827150;29;20053;-58
2023/05/15 04:52:57;;;;;;;8.98;1.60;;;7.40;99.90;;;;;;4837299;29;20451;-58
2023/05/15 04:55:28;;;;;;;15.23;3.10;;;7.40;99.90;;;;;;4838786;29;20042;-59
2023/05/15 04:57:57;;;;;;;14.50;1.58;;;7.50;99.90;;;;;;4826553;29;20053;-58
2023/05/15 05:00:25;;;;;;;10.50;1.85;;;7.60;99.90;;;;;;4836486;29;20045;-59
2023/05/15 05:02:53;;;;;;;12.88;2.25;;;7.70;99.90;;;;;;4828415;29;20486;-57
2023/05/15 05:05:21;;;;;;;13.40;1.70;;;7.80;99.90;;;;;;4833445;29;20080;-58
2023/05/15 05:07:50;;;;;;;10.35;1.30;;;8.10;99.90;;;;;;4834393;29;20054;-58
2023/05/15 05:10:20;;;;;;;11.60;1.83;;;8.20;99.90;;;;;;4836500;29;20386;-58
2023/05/15 05:12:51;;;;;;;9.68;1.48;;;8.20;99.90;;;;;;4836220;29;20054;-60
2023/05/15 05:15:19;;;;;;;12.23;1.50;;;8.30;99.90;;;;;;4836783;29;20050;-57
2023/05/15 05:17:47;;;;;;;11.63;1.58;;;8.40;99.90;;;;;;4833800;29;20057;-58
2023/05/15 05:20:16;;;;;;;11.30;1.80;;;8.50;99.90;;;;;;4837562;29;20487;-59
2023/05/15 05:22:44;;;;;;;10.57;1.88;;;8.50;99.90;;;;;;4839910;29;20072;-59
2023/05/15 05:25:11;;;;;;;12.02;2.33;;;8.60;99.90;;;;;;4840370;29;20049;-60
2023/05/15 05:27:39;;;;;;;13.15;1.88;;;8.60;99.90;;;;;;4840180;29;20050;-58
2023/05/15 05:30:08;;;;;;;13.65;2.85;;;8.60;99.90;;;;;;4835974;29;20221;-59
2023/05/15 05:32:35;;;;;;;11.52;1.60;;;8.50;99.90;;;;;;4835868;29;20521;-59
2023/05/15 05:35:04;;;;;;;10.57;1.70;;;8.50;99.90;;;;;;4837088;29;20057;-57
2023/05/15 05:37:32;;;;;;;9.25;1.55;;;8.50;99.90;;;;;;4835569;29;20510;-58
2023/05/15 05:40:01;;;;;;;9.50;1.60;;;8.50;99.90;;;;;;4817621;29;20042;-58
2023/05/15 05:42:29;;;;;;;10.77;1.90;;;;;;;;;;4836344;29;20529;-57
2023/05/15 05:44:58;;;;;;;10.30;1.60;;;8.50;99.90;;;;;;4831377;29;20578;-58
2023/05/15 05:47:26;;;;;;;9.88;1.80;;;8.50;99.90;;;;;;4836012;29;20073;-59
2023/05/15 05:49:54;;;;;;;15.45;2.33;;;8.50;99.90;;;;;;4818440;29;20050;-58
2023/05/15 05:52:22;;;;;;;7.05;1.20;;;8.40;99.90;;;;;;4822640;29;20430;-58
2023/05/15 05:54:53;;;;;;;8.55;1.45;;;8.40;99.90;;;;;;4839723;29;20474;-58
2023/05/15 05:57:21;;;;;;;9.70;2.78;;;8.40;99.90;;;;;;4822964;29;20084;-59
2023/05/15 05:59:49;;;;;;;6.53;1.85;;;8.40;99.90;;;;;;4840022;29;20497;-58
2023/05/15 06:02:21;;;;;;;14.32;2.17;;;8.50;99.90;;;;;;4839752;29;20073;-59
2023/05/15 06:04:52;;;;;;;12.85;2.38;;;8.60;99.90;;;;;;4821457;29;20061;-57
2023/05/15 06:07:29;;;;;;;7.57;1.35;;;8.70;99.90;;;;;;4828412;29;20058;-59
2023/05/15 06:10:00;;;;;;;12.20;1.50;;;8.90;99.90;;;;;;4836453;29;20049;-59
2023/05/15 06:12:28;;;;;;;12.75;2.45;;;9.10;99.90;;;;;;4838630;29;20846;-59
2023/05/15 06:14:59;;;;;;;8.93;2.40;;;9.30;99.90;;;;;;4834335;29;20057;-58
2023/05/15 06:17:27;;;;;;;10.20;1.55;;;9.40;99.90;;;;;;4839344;29;20050;-58
2023/05/15 06:19:55;;;;;;;7.65;1.17;;;9.60;99.90;;;;;;4822124;29;20078;-58
2023/05/15 06:22:22;;;;;;;11.07;1.55;;;9.70;99.90;;;;;;4819886;29;20500;-57
2023/05/15 06:24:51;;;;;;;14.65;2.28;;;9.70;99.90;;;;;;4834779;29;20418;-57
2023/05/15 06:27:19;;;;;;;12.90;1.90;;;9.70;99.90;;;;;;4838278;29;20065;-59
2023/05/15 06:29:49;;;;;;;8.65;1.00;;;9.80;99.90;;;;;;4839238;29;20072;-58
2023/05/15 06:32:17;;;;;;;8.52;1.85;;;9.70;99.90;;;;;;4836162;29;20085;-59
2023/05/15 06:34:45;;;;;;;9.75;1.27;;;9.80;99.90;;;;;;4827228;29;20049;-60
2023/05/15 06:37:16;;;;;;;9.27;2.65;;;9.80;99.90;;;;;;4838181;29;20414;-58
2023/05/15 06:39:43;;;;;;;10.35;2.45;;;9.80;99.90;;;;;;4838567;29;20054;-60
2023/05/15 06:42:11;;;;;;;12.57;1.35;;;9.90;99.90;;;;;;4839043;29;20054;-58
2023/05/15 06:44:41;;;;;;;10.65;1.35;;;9.90;99.90;;;;;;4839139;29;20077;-58
2023/05/15 06:47:08;;;;;;;14.65;1.65;;;9.90;99.90;;;;;;4835355;29;20398;-59
2023/05/15 06:49:36;;;;;;;6.68;1.30;;;9.90;99.90;;;;;;4834240;29;20069;-58
2023/05/15 06:52:05;;;;;;;11.57;1.33;;;10.00;99.90;;;;;;4838181;29;20056;-57
2023/05/15 06:54:32;;;;;;;6.05;1.27;;;10.00;99.90;;;;;;4838381;29;20406;-58
2023/05/15 06:57:00;;;;;;;9.52;2.35;;;10.00;99.90;;;;;;4838628;29;20509;-58
2023/05/15 06:59:30;;;;;;;7.53;1.95;;;10.00;99.90;;;;;;4838187;29;20061;-58
2023/05/15 07:01:57;;;;;;;9.82;1.50;;;10.00;99.90;;;;;;4836990;29;20054;-59
2023/05/15 07:04:26;;;;;;;3.85;0.90;;;9.90;99.90;;;;;;4825184;29;20514;-58
2023/05/15 07:06:54;;;;;;;4.40;1.30;;;9.80;99.90;;;;;;4825382;29;20406;-60
2023/05/15 07:09:23;;;;;;;7.10;0.88;;;9.80;99.90;;;;;;4837321;29;20057;-59
2023/05/15 07:11:51;;;;;;;7.03;1.15;;;;;;;;;;4837736;29;20056;-59
2023/05/15 07:14:22;;;;;;;7.28;1.25;;;9.60;99.90;;;;;;4827999;29;20445;-59
2023/05/15 07:16:50;;;;;;;6.35;0.93;;;9.60;99.90;;;;;;4819808;29;20086;-61
2023/05/15 07:19:21;;;;;;;14.55;1.85;;;9.60;99.90;;;;;;4827489;29;20046;-58
2023/05/15 07:21:49;;;;;;;3.22;1.00;;;9.80;99.90;;;;;;4819152;29;20458;-58
2023/05/15 07:24:17;;;;;;;6.90;1.23;;;9.80;99.90;;;;;;4834952;29;20050;-57
2023/05/15 07:26:47;;;;;;;6.78;1.08;;;9.90;99.90;;;;;;4822123;29;20053;-59
2023/05/15 07:29:24;;;;;;;13.95;1.23;;;9.90;99.90;;;;;;4832286;29;20063;-58
2023/05/15 07:31:52;;;;;;;11.75;1.27;;;10.10;99.90;;;;;;4822568;29;20042;-58
2023/05/15 07:34:20;;;;;;;14.10;3.22;;;10.20;99.90;;;;;;4820085;29;20057;-59
2023/05/15 07:36:48;;;;;;;5.90;1.23;;;10.30;99.90;;;;;;4847920;29;20404;-58
2023/05/15 07:39:19;;;;;;;11.00;1.38;;;10.30;99.90;;;;;;4818530;29;20058;-58
2023/05/15 07:41:47;;;;;;;3.28;0.73;;;10.40;99.90;;;;;;4837080;29;20054;-58
2023/05/15 07:44:15;;;;;;;2.60;0.50;;;10.50;99.90;;;;;;4836359;29;20050;-59
2023/05/15 07:46:44;;;;;;;6.70;0.85;;;10.50;99.90;;;;;;4828694;29;20436;-59
2023/05/15 07:49:12;;;;;;;5.37;1.33;;;10.50;99.90;;;;;;4823192;29;20061;-57
2023/05/15 07:51:41;;;;;;;5.68;0.70;;;10.70;99.90;;;;;;4835975;29;20406;-57
2023/05/15 07:54:09;;;;;;;4.30;0.83;;;10.80;99.90;;;;;;4835808;29;20054;-59
2023/05/15 07:56:37;;;;;;;5.65;0.50;;;11.00;99.90;;;;;;4821370;29;20069;-59
2023/05/15 07:59:06;;;;;;;9.85;0.93;;;11.10;99.90;;;;;;4833953;29;20207;-58
2023/05/15 08:01:37;;;;;;;6.38;0.70;;;11.10;99.90;;;;;;4836884;29;20050;-59
2023/05/15 08:04:07;;;;;;;9.70;0.88;;;11.00;99.90;;;;;;4834400;29;20058;-58
2023/05/15 08:06:37;;;;;;;6.65;0.70;;;11.10;99.90;;;;;;4834719;29;20515;-58
2023/05/15 08:09:05;;;;;;;5.10;0.80;;;11.20;99.90;;;;;;4833756;29;20050;-58
2023/05/15 08:11:32;;;;;;;4.85;0.95;;;11.20;99.90;;;;;;4826548;29;20038;-58
2023/05/15 08:14:01;;;;;;;2.88;0.43;;;11.30;99.90;;;;;;4835778;29;20050;-58
2023/05/15 08:16:29;;;;;;;7.20;0.57;;;11.40;99.90;;;;;;4835598;29;20050;-58
2023/05/15 08:19:00;;;;;;;2.35;0.65;;;11.40;99.90;;;;;;4836533;29;20053;-59
2023/05/15 08:21:28;;;;;;;5.90;0.98;;;11.50;99.90;;;;;;4837174;29;20061;-59
2023/05/15 08:23:57;;;;;;;4.88;0.60;;;11.50;99.90;;;;;;4819822;29;20066;-59
2023/05/15 08:26:27;;;;;;;4.82;0.95;;;11.50;99.90;;;;;;4823220;29;20073;-58
2023/05/15 08:28:56;;;;;;;8.95;0.98;;;11.60;99.90;;;;;;4832158;29;20061;-59
2023/05/15 08:31:24;;;;;;;4.78;0.47;;;11.60;99.90;;;;;;4836695;29;20050;-58
2023/05/15 08:33:52;;;;;;;0.32;0.30;;;11.60;99.90;;;;;;4835989;29;20065;-58
2023/05/15 08:36:23;;;;;;;4.85;0.50;;;11.70;99.90;;;;;;4825676;29;20252;-58
2023/05/15 08:38:51;;;;;;;5.40;0.40;;;11.70;99.90;;;;;;4836526;29;20050;-60
2023/05/15 08:41:30;;;;;;;3.42;0.73;;;11.80;99.90;;;;;;4835255;29;20143;-58
2023/05/15 08:44:09;;;;;;;3.90;0.35;;;11.90;99.90;;;;;;4832490;29;20398;-58
2023/05/15 08:46:39;;;;;;;4.72;0.70;;;11.90;99.90;;;;;;4829686;29;20041;-57
2023/05/15 08:49:26;;;;;;;5.00;0.60;;;12.10;99.90;;;;;;4830980;29;20056;-59
2023/05/15 08:51:55;;;;;;;2.30;0.30;;;12.30;99.90;;;;;;4835898;29;20057;-59
2023/05/15 08:54:23;;;;;;;3.80;0.43;;;12.50;99.90;;;;;;4840925;29;20057;-59
2023/05/15 08:56:52;;;;;;;5.43;0.60;;;12.60;99.90;;;;;;4840983;29;20050;-57
2023/05/15 08:59:22;;;;;;;3.13;0.50;;;12.60;99.90;;;;;;4840067;29;20053;-59
2023/05/15 09:01:51;;;;;;;4.07;0.63;;;;;;;;;;4840631;29;20529;-58
2023/05/15 09:04:19;;;;;;;2.95;0.60;;;12.60;99.90;;;;;;4840657;29;20053;-58
2023/05/15 09:06:48;;;;;;;6.07;0.73;;;12.70;99.90;;;;;;4838042;29;20053;-58
2023/05/15 09:09:17;;;;;;;1.58;0.40;;;12.70;99.90;;;;;;4836622;29;20049;-58
2023/05/15 09:11:47;;;;;;;3.10;0.30;;;12.90;99.90;;;;;;4839429;29;20061;-60
2023/05/15 09:14:15;;;;;;;;;;;12.90;99.90;;;;;;4826264;29;20199;-59
2023/05/15 09:16:43;;;;;;;2.60;0.85;;;13.00;99.90;;;;;;4840092;29;19931;-60
2023/05/15 09:19:14;;;;;;;3.78;0.40;;;13.10;99.90;;;;;;4837638;29;20061;-59
2023/05/15 09:21:42;;;;;;;3.20;0.50;;;13.10;99.90;;;;;;4809005;29;20058;-60
2023/05/15 09:24:23;;;;;;;2.92;0.45;;;13.20;99.90;;;;;;4816688;29;20305;-60
2023/05/15 09:27:05;;;;;;;4.20;0.50;;;13.20;99.90;;;;;;4820582;29;20050;-61
2023/05/15 09:29:35;;;;;;;2.58;0.38;;;13.60;99.90;;;;;;4822129;29;20062;-59
2023/05/15 09:32:11;;;;;;;2.83;0.40;;;13.30;99.90;;;;;;4821469;29;20064;-58
2023/05/15 09:34:41;;;;;;;6.28;0.98;;;13.30;99.90;;;;;;4821166;29;20521;-60
2023/05/15 09:37:12;;;;;;;4.28;0.32;;;13.40;99.90;;;;;;4822226;29;20503;-61
2023/05/15 09:39:42;;;;;;;4.68;0.63;;;13.60;99.90;;;;;;4834744;29;20057;-61
2023/05/15 09:42:12;;;;;;;3.28;0.55;;;13.80;99.90;;;;;;4819769;29;20060;-60
2023/05/15 09:44:41;;;;;;;9.00;0.65;;;14.00;99.90;;;;;;4821032;29;20519;-60
2023/05/15 09:47:15;;;;;;;7.68;0.90;;;14.10;99.90;;;;;;4820239;29;20059;-60
2023/05/15 09:49:45;;;;;;;6.80;2.65;;;14.10;99.90;;;;;;4815488;29;20054;-61
2023/05/15 09:52:15;;;;;;;5.88;1.60;;;14.00;99.90;;;;;;4814753;29;20057;-61
2023/05/15 09:54:48;;;;;;;3.97;0.55;;;13.90;99.90;;;;;;4821592;29;20062;-59
2023/05/15 09:57:21;;;;;;;6.50;0.60;;;13.80;99.90;;;;;;4820270;29;20383;-58
2023/05/15 09:59:49;;;;;;;4.55;0.60;;;13.60;99.90;;;;;;4820393;29;20395;-60
2023/05/15 10:02:31;;;;;;;5.28;0.70;;;13.70;99.90;;;;;;4817448;29;20050;-59
2023/05/15 10:04:59;;;;;;;10.05;0.93;;;13.90;99.90;;;;;;4819604;29;20060;-60
2023/05/15 10:07:32;;;;;;;5.57;0.70;;;14.10;99.90;;;;;;4818971;29;20053;-60
2023/05/15 10:10:01;;;;;;;1.40;0.50;;;14.20;99.90;;;;;;4813628;29;20392;-58
2023/05/15 10:12:31;;;;;;;3.65;0.80;;;14.20;99.90;;;;;;4815980;29;20436;-58
2023/05/15 10:15:00;;;;;;;4.68;0.70;;;14.00;99.90;;;;;;4814197;29;20450;-58
2023/05/15 10:17:30;;;;;;;9.33;1.33;;;13.60;99.90;;;;;;4831189;29;20142;-60
2023/05/15 10:19:59;;;;;;;3.97;0.90;;;13.60;99.90;;;;;;4814194;29;20058;-59
2023/05/15 10:22:29;;;;;;;2.67;0.52;;;13.40;99.90;;;;;;4831355;29;20061;-60
2023/05/15 10:25:30;;;;;;;;;;;13.40;99.90;;;;;;4839442;29;20045;-59
2023/05/15 10:27:57;;;;;;;;;;;13.50;99.90;;;;;;4808511;29;19925;-60
2023/05/15 10:30:26;;;;;;;2.38;0.88;;;13.70;99.90;;;;;;4835849;29;19931;-59
2023/05/15 10:32:56;;;;;;;3.00;0.57;;;13.90;99.90;;;;;;4836122;29;20050;-59
2023/05/15 10:35:25;;;;;;;2.33;0.30;;;14.30;99.90;;;;;;4830689;29;20054;-60
2023/05/15 10:37:54;;;;;;;2.08;0.32;;;14.60;99.90;;;;;;4834082;29;20050;-60
2023/05/15 10:40:23;;;;;;;4.65;0.43;;;15.00;99.90;;;;;;4834191;29;20574;-59
2023/05/15 10:42:54;;;;;;;0.93;0.40;;;15.30;99.90;;;;;;4834559;29;20551;-58
2023/05/15 10:45:22;;;;;;;4.85;1.35;;;15.40;99.90;;;;;;4835782;29;20046;-58
2023/05/15 10:47:50;;;;;;;9.60;0.75;;;15.40;99.90;;;;;;4833032;29;20548;-59
2023/05/15 10:50:19;;;;;;;2.53;0.57;;;15.30;99.90;;;;;;4836082;29;20390;-60
2023/05/15 10:52:51;;;;;;;7.88;0.50;;;15.20;99.90;;;;;;4837374;29;20066;-59
2023/05/15 10:55:19;;;;;;;2.50;0.60;;;15.10;99.90;;;;;;4834039;29;20520;-57
2023/05/15 10:57:47;;;;;;;1.73;0.38;;;15.30;99.90;;;;;;4834355;29;20046;-59
2023/05/15 11:00:21;;;;;;;10.45;1.00;;;15.50;99.90;;;;;;4833555;29;20042;-59
2023/05/15 11:02:52;;;;;;;5.13;0.60;;;15.50;99.90;;;;;;4828148;29;20053;-59
2023/05/15 11:05:21;;;;;;;3.70;0.75;;;15.60;99.90;;;;;;4833009;29;20046;-59
2023/05/15 11:08:25;;;;;;;1.42;0.45;;;15.80;99.90;;;;;;4837747;29;20062;-59
2023/05/15 11:10:53;;;;;;;6.80;0.60;;;16.00;99.20;;;;;;4762295;30;20075;-60
2023/05/15 11:13:21;;;;;;;8.95;0.85;;;16.20;99.90;;;;;;4807291;29;20061;-60
2023/05/15 11:15:52;;;;;;;9.57;1.33;;;16.30;99.60;;;;;;4836289;29;20341;-60
2023/05/15 11:18:21;;;;;;;7.05;1.02;;;16.40;99.90;;;;;;4833782;29;20045;-60
2023/05/15 11:20:50;;;;;;;2.80;0.77;;;16.10;99.90;;;;;;4837357;29;20057;-60
2023/05/15 11:23:22;;;;;;;4.50;0.77;;;16.00;99.90;;;;;;4836102;29;20058;-59
2023/05/15 11:25:56;;;;;;;2.38;0.60;;;16.00;99.90;;;;;;4837712;29;20046;-58
2023/05/15 11:28:29;;;;;;;7.95;0.63;;;15.90;99.90;;;;;;4836509;29;20054;-60
2023/05/15 11:30:59;;;;;;;5.45;0.50;;;15.80;99.70;;;;;;4837598;29;20065;-59
2023/05/15 11:33:30;;;;;;;1.65;0.40;;;15.70;99.40;;;;;;4837416;29;20054;-59
2023/05/15 11:36:06;;;;;;;11.18;0.52;;;15.50;99.30;;;;;;5105378;27;20116;-58
2023/05/15 11:38:41;;;;;;;2.92;0.70;;;15.60;99.90;;;;;;5078299;28;20062;-59
2023/05/15 11:41:20;;;;;;;5.35;0.60;;;15.80;99.90;;;;;;5085132;28;20047;-59
2023/05/15 11:43:49;;;;;;;4.35;0.63;;;16.20;99.90;;;;;;5072932;28;20056;-58
2023/05/15 11:46:17;;;;;;;4.30;0.60;;;16.40;99.90;;;;;;5067764;28;20048;-59
2023/05/15 11:48:49;;;;;;;4.65;0.75;;;16.70;99.10;;;;;;5080371;28;20052;-59
2023/05/15 11:51:24;;;;;;;2.65;0.45;;;16.80;97.50;;;;;;5083534;28;20044;-58
2023/05/15 11:53:54;;;;;;;6.32;0.50;;;16.80;97.60;;;;;;5079777;28;20048;-61
2023/05/15 11:56:27;;;;;;;5.45;0.52;;;16.70;97.40;;;;;;5085191;28;20044;-61
2023/05/15 11:58:57;;;;;;;5.68;0.60;;;16.70;98.20;;;;;;5082085;28;20526;-62
2023/05/15 12:01:25;;;;;;;4.07;0.50;;;16.70;98.00;;;;;;5083941;28;20037;-63
2023/05/15 12:03:53;;;;;;;4.80;0.45;;;17.00;97.20;;;;;;5073176;28;20052;-63
2023/05/15 12:06:22;;;;;;;5.43;0.70;;;17.30;96.20;;;;;;5065169;28;20059;-61
2023/05/15 12:08:52;;;;;;;4.25;0.82;;;17.40;92.50;;;;;;5076628;28;20047;-61
2023/05/15 12:11:24;;;;;;;5.65;0.68;;;17.40;92.70;;;;;;5069320;28;20455;-61
2023/05/15 12:13:53;;;;;;;6.07;0.70;;;17.50;95.90;;;;;;5096375;28;20040;-63
2023/05/15 12:16:25;;;;;;;4.15;1.10;;;17.60;96.50;;;;;;5102948;28;20503;-63
2023/05/15 12:18:58;;;;;;;3.92;0.60;;;17.90;94.20;;;;;;5083915;28;20048;-63
2023/05/15 12:21:27;;;;;;;3.00;1.08;;;18.40;93.70;;;;;;5083352;28;20487;-63
2023/05/15 12:23:54;;;;;;;1.08;0.40;;;18.60;93.90;;;;;;5081500;28;20530;-60
2023/05/15 12:26:27;;;;;;;1.88;0.40;;;18.90;90.40;;;;;;5073578;28;21151;-60
2023/05/15 12:28:55;;;;;;;9.50;1.00;;;18.70;88.50;;;;;;5083255;28;20055;-60
2023/05/15 12:31:23;;;;;;;2.90;0.75;;;18.30;88.60;;;;;;5084389;28;20067;-60
2023/05/15 12:33:51;;;;;;;4.78;0.47;;;18.20;92.10;;;;;;5081675;28;20052;-60
2023/05/15 12:36:20;;;;;;;6.82;0.60;;;18.50;92.30;;;;;;5082172;28;20652;-60
2023/05/15 12:38:48;;;;;;;0.60;0.35;;;18.80;90.90;;;;;;5076643;28;20037;-60
2023/05/15 12:41:18;;;;;;;3.50;0.57;;;19.30;88.70;;;;;;5082537;28;20462;-60
2023/05/15 12:43:47;;;;;;;5.28;0.55;;;19.50;85.10;;;;;;5079779;28;20056;-58
2023/05/15 12:46:20;;;;;;;5.90;0.60;;;19.40;84.00;;;;;;5069768;28;20053;-59
2023/05/15 12:48:49;;;;;;;4.20;0.60;;;19.40;84.40;;;;;;5063537;28;20037;-60
2023/05/15 12:51:21;;;;;;;8.45;0.93;;;19.80;79.80;;;;;;5068109;28;20067;-60
2023/05/15 12:53:52;;;;;;;16.95;1.30;;;19.70;79.10;;;;;;5064546;28;20037;-61
2023/05/15 12:56:20;;;;;;;6.82;0.70;;;19.70;79.10;;;;;;5063255;28;20067;-65
2023/05/15 12:58:53;;;;;;;4.13;0.82;;;19.30;78.90;;;;;;5063088;28;20041;-62
2023/05/15 13:01:21;;;;;;;;;;;19.10;81.50;;;;;;5058451;28;20399;-61
2023/05/15 13:03:49;;;;;;;6.15;0.88;;;19.10;79.80;;;;;;5053411;28;19927;-61
2023/05/15 13:06:18;;;;;;;4.68;0.82;;;19.40;79.20;;;;;;5050950;28;20056;-61
2023/05/15 13:08:46;;;;;;;3.95;0.98;;;19.50;79.10;;;;;;5063607;28;20040;-61